Time;durP1;ratioP1;P1;durP2;ratioP2;P2;SDS_P1;SDS_P2;PMS_P1;PMS_P2;Temp;Humidity;BMP_temperature;BMP_pressure;BME280_temperature;BME280_humidity;BME280_pressure;Samples;Min_cycle;Max_cycle;Signal;HPM_P1;HPM_P2
2022/03/22 00:01:55;;;;;;;69.50;44.22;;;5.90;99.90;;;;;;5032438;28;20474;-86
2022/03/22 00:04:21;;;;;;;68.40;44.03;;;5.90;99.90;;;;;;5031635;28;20081;-85
2022/03/22 00:06:47;;;;;;;67.20;44.67;;;5.30;99.90;;;;;;5015819;28;20079;-85
2022/03/22 00:09:12;;;;;;;63.38;42.47;;;5.90;99.90;;;;;;5015890;28;20037;-86
2022/03/22 00:11:38;;;;;;;59.97;40.95;;;5.90;99.90;;;;;;5032732;28;20037;-86
2022/03/22 00:14:06;;;;;;;61.15;40.60;;;5.90;99.90;;;;;;5015358;28;20066;-86
2022/03/22 00:16:32;;;;;;;67.72;42.97;;;5.90;99.90;;;;;;5032742;28;20053;-86
2022/03/22 00:18:57;;;;;;;68.25;43.35;;;5.80;99.90;;;;;;5015285;28;20501;-85
2022/03/22 00:21:23;;;;;;;63.17;42.45;;;5.80;99.90;;;;;;5031231;28;20111;-86
2022/03/22 00:23:49;;;;;;;65.47;43.03;;;5.80;99.90;;;;;;5015601;28;20048;-86
2022/03/22 00:26:14;;;;;;;63.67;41.72;;;5.60;99.90;;;;;;5021252;28;20060;-86
2022/03/22 00:28:40;;;;;;;67.45;42.63;;;5.80;99.90;;;;;;5040498;28;20131;-86
2022/03/22 00:31:07;;;;;;;66.13;44.45;;;5.80;99.90;;;;;;5031482;28;20099;-86
2022/03/22 00:33:33;;;;;;;64.25;43.67;;;5.80;99.90;;;;;;5031408;28;20123;-85
2022/03/22 00:35:59;;;;;;;64.18;43.22;;;5.80;99.90;;;;;;5032680;28;20481;-87
2022/03/22 00:38:26;;;;;;;65.15;41.97;;;5.50;99.90;;;;;;5032689;28;20500;-85
2022/03/22 00:40:52;;;;;;;63.08;41.60;;;5.60;99.90;;;;;;5015643;28;20060;-85
2022/03/22 00:43:18;;;;;;;61.33;41.70;;;5.60;99.90;;;;;;5015052;28;20420;-86
2022/03/22 00:45:44;;;;;;;60.20;41.03;;;5.60;99.90;;;;;;5014874;28;20052;-85
2022/03/22 00:48:14;;;;;;;67.22;43.47;;;5.50;99.90;;;;;;5015369;28;20033;-86
2022/03/22 00:50:43;;;;;;;68.45;45.40;;;5.50;99.90;;;;;;5014647;28;20504;-85
2022/03/22 00:53:09;;;;;;;60.80;41.30;;;5.50;99.90;;;;;;4998888;28;20047;-85
2022/03/22 00:55:36;;;;;;;72.15;47.00;;;5.50;99.90;;;;;;5030805;28;20114;-86
2022/03/22 00:58:03;;;;;;;65.80;43.78;;;5.50;99.90;;;;;;5014738;28;20048;-87
2022/03/22 01:00:29;;;;;;;66.45;43.83;;;5.50;99.90;;;;;;5014246;28;20118;-86
2022/03/22 01:02:56;;;;;;;68.82;45.00;;;5.50;99.90;;;;;;5015033;28;20037;-87
2022/03/22 01:05:22;;;;;;;63.20;42.05;;;5.40;99.90;;;;;;5031037;28;20077;-87
2022/03/22 01:08:05;;;;;;;66.65;43.78;;;5.40;99.90;;;;;;4998449;28;20071;-86
2022/03/22 01:10:31;;;;;;;64.13;43.00;;;5.30;99.90;;;;;;4997757;28;20623;-86
2022/03/22 01:12:57;;;;;;;65.55;42.70;;;5.30;99.90;;;;;;4997909;28;20041;-86
2022/03/22 01:15:25;;;;;;;70.15;45.33;;;5.30;99.90;;;;;;5014716;28;20047;-85
2022/03/22 01:17:54;;;;;;;66.35;43.55;;;5.30;99.90;;;;;;4997825;28;20147;-85
2022/03/22 01:20:22;;;;;;;62.20;43.13;;;5.30;99.90;;;;;;5014256;28;20049;-86
2022/03/22 01:22:49;;;;;;;63.03;42.67;;;5.30;99.90;;;;;;5013788;28;20213;-86
2022/03/22 01:25:19;;;;;;;68.20;43.45;;;5.30;99.90;;;;;;5013806;28;20136;-85
2022/03/22 01:27:46;;;;;;;63.78;43.30;;;5.20;99.90;;;;;;4997716;28;20492;-86
2022/03/22 01:30:12;;;;;;;68.03;44.28;;;5.20;99.90;;;;;;5014044;28;20037;-85
2022/03/22 01:32:38;;;;;;;68.88;44.72;;;5.20;99.90;;;;;;5013327;28;20389;-85
2022/03/22 01:35:05;;;;;;;67.85;44.35;;;5.20;99.90;;;;;;5014413;28;20045;-84
2022/03/22 01:37:30;;;;;;;66.35;44.13;;;5.50;99.90;;;;;;4997685;28;20049;-84
2022/03/22 01:39:56;;;;;;;66.60;45.28;;;5.20;99.90;;;;;;5030144;28;20056;-86
2022/03/22 01:42:22;;;;;;;68.68;43.72;;;5.10;99.90;;;;;;4997914;28;20351;-85
2022/03/22 01:44:49;;;;;;;68.93;44.15;;;5.10;99.90;;;;;;4997257;28;20062;-84
2022/03/22 01:47:19;;;;;;;66.32;43.50;;;5.70;99.90;;;;;;5014117;28;20377;-85
2022/03/22 01:49:44;;;;;;;68.60;45.35;;;5.10;99.90;;;;;;4996703;28;20046;-85
2022/03/22 01:52:19;;;;;;;66.75;45.00;;;5.10;99.90;;;;;;5030350;28;20446;-84
2022/03/22 01:54:45;;;;;;;65.85;45.45;;;5.00;99.90;;;;;;4991558;28;20049;-85
2022/03/22 01:57:11;;;;;;;65.90;43.97;;;5.00;99.90;;;;;;5014744;28;20055;-84
2022/03/22 01:59:37;;;;;;;69.50;46.55;;;5.00;99.90;;;;;;5010630;28;20171;-84
2022/03/22 02:07:33;;;;;;;70.97;45.22;;;5.00;99.90;;;;;;5020769;28;20067;-85
2022/03/22 02:09:59;;;;;;;74.05;46.35;;;5.40;99.90;;;;;;5019321;28;20124;-86
2022/03/22 02:12:24;;;;;;;72.93;47.15;;;5.00;99.90;;;;;;5032016;28;20129;-85
2022/03/22 02:14:50;;;;;;;72.35;44.33;;;5.00;99.90;;;;;;5013963;28;20501;-85
2022/03/22 02:17:16;;;;;;;68.35;43.67;;;5.00;99.90;;;;;;5030263;28;20042;-86
2022/03/22 02:19:41;;;;;;;71.68;45.95;;;4.90;99.90;;;;;;5030249;28;20046;-85
2022/03/22 02:22:12;;;;;;;67.78;46.00;;;4.90;99.90;;;;;;5017780;28;20492;-85
2022/03/22 02:24:38;;;;;;;77.63;48.22;;;4.90;99.90;;;;;;5033417;28;20540;-85
2022/03/22 02:27:05;;;;;;;69.28;45.75;;;4.90;99.90;;;;;;5017141;28;20160;-86
2022/03/22 02:29:31;;;;;;;70.18;47.95;;;4.90;99.90;;;;;;5033454;28;20363;-86
2022/03/22 02:31:57;;;;;;;79.57;47.80;;;4.90;99.90;;;;;;5016668;28;20107;-86
2022/03/22 02:34:22;;;;;;;73.40;46.38;;;4.90;99.90;;;;;;5017245;28;20049;-86
2022/03/22 02:36:48;;;;;;;73.93;48.60;;;4.90;99.90;;;;;;5016919;28;20095;-85
2022/03/22 02:39:14;;;;;;;73.18;47.15;;;4.90;99.90;;;;;;5003270;28;20034;-86
2022/03/22 02:41:42;;;;;;;75.20;47.22;;;4.90;99.90;;;;;;5026834;28;20059;-85
2022/03/22 02:44:10;;;;;;;84.45;51.58;;;4.80;99.90;;;;;;5035812;28;20045;-85
2022/03/22 02:46:36;;;;;;;77.07;50.47;;;4.80;99.90;;;;;;5036105;28;20073;-85
2022/03/22 02:49:03;;;;;;;77.03;48.72;;;4.80;99.90;;;;;;5025768;28;20061;-85
2022/03/22 02:51:28;;;;;;;75.72;48.70;;;4.80;99.90;;;;;;5017812;28;20457;-87
2022/03/22 02:53:54;;;;;;;74.72;47.78;;;4.80;99.90;;;;;;5000297;28;20048;-85
2022/03/22 02:56:20;;;;;;;75.97;48.53;;;4.70;99.90;;;;;;5033582;28;20041;-85
2022/03/22 02:58:46;;;;;;;81.50;49.00;;;4.70;99.90;;;;;;5032750;28;20457;-85
2022/03/22 03:01:11;;;;;;;73.22;47.47;;;4.70;99.90;;;;;;5017010;28;20098;-85
2022/03/22 03:03:37;;;;;;;69.80;46.08;;;4.70;99.90;;;;;;5033262;28;20173;-85
2022/03/22 03:06:03;;;;;;;71.85;48.63;;;4.70;99.90;;;;;;5032890;28;20056;-84
2022/03/22 03:08:29;;;;;;;72.50;48.03;;;4.70;99.90;;;;;;5000332;28;20037;-84
2022/03/22 03:10:54;;;;;;;73.47;48.28;;;4.70;99.90;;;;;;5015986;28;20041;-85
2022/03/22 03:13:20;;;;;;;74.68;47.70;;;4.60;99.90;;;;;;5032848;28;20045;-85
2022/03/22 03:15:47;;;;;;;72.90;48.30;;;4.60;99.90;;;;;;5016195;28;20127;-84
2022/03/22 03:18:13;;;;;;;75.20;47.42;;;4.70;99.90;;;;;;5016358;28;20053;-85
2022/03/22 03:20:39;;;;;;;69.38;46.50;;;4.60;99.90;;;;;;5016503;28;20071;-86
2022/03/22 03:23:05;;;;;;;72.82;47.70;;;4.60;99.90;;;;;;5033302;28;20099;-85
2022/03/22 03:25:31;;;;;;;70.10;45.03;;;4.60;99.90;;;;;;5032389;28;20486;-85
2022/03/22 03:27:56;;;;;;;70.00;44.97;;;4.60;99.90;;;;;;5015785;28;20101;-85
2022/03/22 03:30:22;;;;;;;72.80;47.08;;;4.50;99.90;;;;;;5016304;28;20045;-85
2022/03/22 03:32:48;;;;;;;74.75;46.78;;;4.50;99.90;;;;;;5014886;28;20449;-85
2022/03/22 03:35:14;;;;;;;72.95;45.35;;;4.50;99.90;;;;;;5016408;28;20469;-84
2022/03/22 03:37:43;;;;;;;69.30;45.40;;;4.60;99.90;;;;;;5033042;28;20038;-85
2022/03/22 03:40:09;;;;;;;76.47;46.15;;;4.60;99.90;;;;;;5032589;28;20149;-85
2022/03/22 03:42:42;;;;;;;67.10;43.72;;;4.60;99.90;;;;;;4983563;28;20133;-85
2022/03/22 03:47:56;;;;;;;64.75;42.80;;;4.60;99.90;;;;;;5031074;28;20470;-85
2022/03/22 03:50:22;;;;;;;64.13;40.75;;;4.70;99.90;;;;;;5015648;28;20045;-85
2022/03/22 03:52:47;;;;;;;70.07;41.80;;;4.70;99.90;;;;;;5020928;28;20049;-85
2022/03/22 03:55:13;;;;;;;65.30;40.90;;;4.80;99.90;;;;;;5024414;28;20076;-85
2022/03/22 03:57:39;;;;;;;64.18;41.17;;;4.80;99.90;;;;;;4983760;28;20049;-85
2022/03/22 04:00:07;;;;;;;58.70;39.55;;;4.80;99.90;;;;;;4999366;28;20045;-85
2022/03/22 04:02:32;;;;;;;59.85;40.47;;;4.90;99.90;;;;;;5016365;28;20045;-86
2022/03/22 04:04:58;;;;;;;60.10;41.10;;;4.90;99.90;;;;;;5015737;28;20060;-86
2022/03/22 04:07:25;;;;;;;61.65;40.90;;;4.90;99.90;;;;;;4999216;28;20041;-85
2022/03/22 04:09:51;;;;;;;60.05;41.42;;;4.90;99.90;;;;;;5014887;28;20041;-85
2022/03/22 04:12:16;;;;;;;64.10;39.92;;;4.90;99.90;;;;;;5032153;28;20052;-86
2022/03/22 04:14:42;;;;;;;56.38;38.85;;;4.90;99.90;;;;;;4999166;28;20135;-85
2022/03/22 04:17:08;;;;;;;64.95;40.15;;;4.90;99.90;;;;;;5015066;28;20045;-85
2022/03/22 04:19:37;;;;;;;56.72;39.70;;;5.00;99.90;;;;;;5014973;28;20103;-86
2022/03/22 04:22:04;;;;;;;61.03;40.15;;;5.00;99.90;;;;;;5014716;28;20056;-86
2022/03/22 04:24:30;;;;;;;57.25;40.25;;;5.00;99.90;;;;;;5015365;28;20062;-85
2022/03/22 04:32:41;;;;;;;59.58;39.58;;;4.90;99.90;;;;;;5030436;28;20486;-86
2022/03/22 04:32:44;;;;;;;58.65;40.25;;;4.90;99.90;;;;;;5018591;28;20042;-86
2022/03/22 04:35:20;;;;;;;60.37;39.37;;;4.90;99.90;;;;;;5017696;28;20195;-85
2022/03/22 04:37:49;;;;;;;57.10;39.08;;;4.90;99.90;;;;;;5032984;28;20394;-85
2022/03/22 04:40:15;;;;;;;61.40;39.63;;;4.90;99.90;;;;;;4999217;28;20060;-85
2022/03/22 04:42:42;;;;;;;61.70;40.55;;;4.90;99.90;;;;;;5014985;28;20050;-85
2022/03/22 04:45:08;;;;;;;60.08;39.85;;;4.80;99.90;;;;;;4998590;28;20378;-86
2022/03/22 04:47:35;;;;;;;60.65;41.25;;;4.80;99.90;;;;;;5031031;28;20040;-86
2022/03/22 04:50:02;;;;;;;58.08;41.00;;;4.80;99.90;;;;;;5013528;28;20041;-85
2022/03/22 04:57:56;;;;;;;61.55;40.83;;;4.70;99.90;;;;;;5031176;28;20129;-86
2022/03/22 05:00:22;;;;;;;59.85;39.13;;;4.70;99.90;;;;;;5014454;28;20038;-86
2022/03/22 05:02:47;;;;;;;58.25;40.47;;;4.70;99.90;;;;;;5031238;28;20118;-86
2022/03/22 05:05:15;;;;;;;62.45;40.85;;;4.70;99.90;;;;;;5030791;28;20720;-85
2022/03/22 05:07:41;;;;;;;66.03;40.45;;;4.70;99.90;;;;;;5014517;28;20060;-85
2022/03/22 05:10:07;;;;;;;61.47;40.20;;;4.70;99.90;;;;;;5013398;28;20428;-85
2022/03/22 05:12:35;;;;;;;63.08;40.88;;;4.70;99.90;;;;;;5031787;28;20044;-85
2022/03/22 05:15:00;;;;;;;61.85;40.35;;;4.70;99.90;;;;;;5030148;28;20053;-85
2022/03/22 05:17:26;;;;;;;57.70;40.15;;;4.70;99.90;;;;;;5029941;28;20543;-85
2022/03/22 05:19:52;;;;;;;62.60;41.78;;;4.60;99.90;;;;;;5030211;28;20049;-85
2022/03/22 05:22:18;;;;;;;64.82;40.75;;;4.60;99.90;;;;;;5030074;28;20091;-85
2022/03/22 05:24:45;;;;;;;57.95;39.53;;;4.60;99.90;;;;;;5029756;28;20079;-84
2022/03/22 05:27:15;;;;;;;61.13;40.45;;;4.60;99.90;;;;;;4997257;28;20049;-85
2022/03/22 05:29:41;;;;;;;61.78;40.25;;;4.60;99.90;;;;;;5031131;28;20473;-85
2022/03/22 05:32:08;;;;;;;59.08;40.88;;;4.60;99.90;;;;;;5029638;28;20052;-85
2022/03/22 05:34:34;;;;;;;60.22;39.58;;;4.60;99.90;;;;;;5029817;28;20052;-85
2022/03/22 05:37:00;;;;;;;61.88;39.88;;;4.60;99.90;;;;;;5025175;28;20045;-85
2022/03/22 05:39:26;;;;;;;60.40;39.40;;;4.60;99.90;;;;;;5030901;28;20056;-87
2022/03/22 05:41:51;;;;;;;57.78;39.67;;;4.60;99.90;;;;;;5030890;28;20061;-86
2022/03/22 05:44:20;;;;;;;59.53;38.80;;;4.60;99.90;;;;;;5017501;28;20052;-84
2022/03/22 05:46:46;;;;;;;58.13;39.72;;;4.60;99.90;;;;;;5040347;28;20045;-84
2022/03/22 05:49:13;;;;;;;63.22;40.70;;;4.60;99.90;;;;;;5031099;28;20048;-85
2022/03/22 05:51:39;;;;;;;58.58;40.28;;;4.60;99.90;;;;;;5032502;28;20044;-85
2022/03/22 05:54:05;;;;;;;59.05;39.05;;;4.50;99.90;;;;;;5005366;28;20041;-87
2022/03/22 05:56:31;;;;;;;57.95;39.83;;;4.60;99.90;;;;;;4997426;28;20461;-85
2022/03/22 05:58:59;;;;;;;59.42;39.65;;;4.60;99.90;;;;;;5030543;28;20165;-84
2022/03/22 06:01:28;;;;;;;64.95;42.45;;;4.70;99.90;;;;;;5014069;28;20061;-85
2022/03/22 06:03:54;;;;;;;62.28;38.90;;;4.60;99.90;;;;;;4998302;28;20488;-85
2022/03/22 06:06:20;;;;;;;66.57;39.97;;;4.60;99.90;;;;;;5029487;28;20084;-85
2022/03/22 06:08:46;;;;;;;59.17;39.42;;;4.70;99.90;;;;;;5030272;28;20469;-86
2022/03/22 06:11:11;;;;;;;59.88;39.03;;;4.70;99.90;;;;;;5029578;28;20045;-87
2022/03/22 06:13:37;;;;;;;61.58;40.17;;;4.80;99.90;;;;;;5039312;28;20055;-85
2022/03/22 06:16:05;;;;;;;59.22;38.97;;;4.80;99.90;;;;;;5033923;28;20384;-84
2022/03/22 06:18:31;;;;;;;59.10;40.53;;;4.80;99.90;;;;;;5032525;28;20048;-83
2022/03/22 06:20:57;;;;;;;56.42;38.03;;;4.90;99.90;;;;;;5048572;28;20419;-84
2022/03/22 06:23:23;;;;;;;58.95;39.83;;;5.00;99.90;;;;;;5048342;28;20048;-84
2022/03/22 06:25:49;;;;;;;63.35;40.10;;;5.10;99.90;;;;;;5032341;28;20053;-85
2022/03/22 06:28:14;;;;;;;60.42;41.45;;;5.30;99.90;;;;;;5049988;28;20433;-85
2022/03/22 06:30:41;;;;;;;59.67;40.25;;;5.50;99.90;;;;;;5049393;28;20053;-85
2022/03/22 06:33:19;;;;;;;60.97;39.53;;;5.70;99.90;;;;;;5049295;28;20443;-85
2022/03/22 06:35:45;;;;;;;58.80;39.85;;;6.00;99.90;;;;;;5033686;28;20044;-86
2022/03/22 06:38:11;;;;;;;59.63;40.03;;;6.20;99.90;;;;;;5049702;28;20114;-84
2022/03/22 06:40:40;;;;;;;54.80;38.85;;;6.40;99.90;;;;;;5016409;28;20488;-84
2022/03/22 06:43:08;;;;;;;61.28;40.15;;;6.70;99.90;;;;;;5033142;28;20049;-83
2022/03/22 06:45:34;;;;;;;56.17;38.15;;;7.00;99.90;;;;;;5016886;28;20477;-85
2022/03/22 06:48:00;;;;;;;56.97;39.05;;;7.30;99.90;;;;;;5016952;28;20049;-85
2022/03/22 06:50:26;;;;;;;56.35;38.42;;;7.60;99.90;;;;;;5032379;28;20335;-85
2022/03/22 06:52:53;;;;;;;51.70;36.95;;;7.90;99.90;;;;;;5048977;28;20036;-85
2022/03/22 06:55:22;;;;;;;51.67;37.47;;;8.20;99.90;;;;;;5050020;28;20470;-85
2022/03/22 06:57:49;;;;;;;53.78;39.05;;;8.40;99.90;;;;;;5016984;28;20380;-85
2022/03/22 07:00:16;;;;;;;51.03;37.10;;;8.60;99.90;;;;;;5048620;28;20045;-82
2022/03/22 07:02:41;;;;;;;53.55;36.38;;;8.80;99.90;;;;;;5032897;28;20045;-84
2022/03/22 07:05:08;;;;;;;46.55;35.22;;;9.00;99.90;;;;;;5049534;28;20041;-83
2022/03/22 07:07:34;;;;;;;52.10;36.67;;;9.30;99.90;;;;;;5050788;28;20120;-84
2022/03/22 07:09:59;;;;;;;50.60;36.55;;;9.50;99.90;;;;;;5054330;28;20607;-84
2022/03/22 07:12:25;;;;;;;49.38;35.38;;;9.70;99.90;;;;;;5053713;28;20082;-84
2022/03/22 07:14:52;;;;;;;44.17;34.65;;;10.20;99.90;;;;;;5036567;28;20055;-84
2022/03/22 07:17:18;;;;;;;47.78;36.35;;;10.10;99.90;;;;;;5052133;28;20103;-84
2022/03/22 07:19:43;;;;;;;46.92;34.80;;;10.60;99.90;;;;;;5055839;28;20473;-84
2022/03/22 07:22:10;;;;;;;44.35;35.28;;;10.70;99.90;;;;;;5056449;28;20373;-84
2022/03/22 07:24:36;;;;;;;46.22;35.20;;;10.70;99.90;;;;;;5052460;28;20503;-84
2022/03/22 07:27:04;;;;;;;40.60;34.10;;;11.10;99.90;;;;;;5052103;28;20128;-84
2022/03/22 07:29:30;;;;;;;46.90;36.60;;;11.30;99.90;;;;;;5045212;28;20037;-83
2022/03/22 07:31:57;;;;;;;46.15;35.30;;;11.60;99.90;;;;;;5016135;28;20450;-83
2022/03/22 07:34:23;;;;;;;44.90;33.10;;;11.60;99.90;;;;;;5015695;28;20080;-83
2022/03/22 07:36:52;;;;;;;48.40;33.70;;;11.90;99.90;;;;;;5016087;28;20083;-83
2022/03/22 07:39:19;;;;;;;43.55;33.72;;;12.30;99.90;;;;;;5017442;28;20096;-84
2022/03/22 07:41:45;;;;;;;43.58;32.17;;;12.60;99.90;;;;;;5017263;28;20046;-83
2022/03/22 07:44:15;;;;;;;42.33;32.15;;;13.00;99.90;;;;;;4999940;28;20046;-84
2022/03/22 07:46:42;;;;;;;40.30;31.90;;;13.60;99.90;;;;;;5016229;28;20049;-84
2022/03/22 07:54:36;;;;;;;45.88;34.63;;;13.90;99.90;;;;;;5018078;28;20122;-83
2022/03/22 07:57:03;;;;;;;44.58;32.40;;;14.00;99.90;;;;;;5032223;28;20477;-84
2022/03/22 07:59:29;;;;;;;38.42;31.33;;;14.10;99.90;;;;;;5015605;28;20091;-84
2022/03/22 08:01:55;;;;;;;40.33;32.15;;;14.10;99.90;;;;;;5032092;28;20045;-84
2022/03/22 08:04:21;;;;;;;36.92;29.73;;;14.40;99.90;;;;;;5015419;28;20091;-84
2022/03/22 08:06:46;;;;;;;39.55;29.65;;;14.80;99.90;;;;;;4999089;28;20085;-84
2022/03/22 08:09:12;;;;;;;41.97;30.55;;;14.80;99.90;;;;;;5015451;28;20369;-84
2022/03/22 08:11:39;;;;;;;36.88;29.25;;;14.90;99.90;;;;;;4998623;28;20543;-84
2022/03/22 08:14:05;;;;;;;39.78;29.65;;;15.00;99.90;;;;;;5015653;28;20075;-84
2022/03/22 08:16:31;;;;;;;45.03;30.75;;;15.10;99.90;;;;;;5033444;28;20393;-84
2022/03/22 08:18:57;;;;;;;40.13;31.27;;;15.50;99.90;;;;;;5014719;28;20053;-84
2022/03/22 08:21:22;;;;;;;39.90;30.38;;;16.00;99.90;;;;;;5015110;28;20081;-83
2022/03/22 08:23:48;;;;;;;35.90;29.45;;;15.90;99.90;;;;;;5032786;28;20048;-83
2022/03/22 08:26:14;;;;;;;38.40;30.55;;;16.00;99.90;;;;;;5030874;28;20136;-83
2022/03/22 08:28:40;;;;;;;35.35;28.77;;;16.60;99.90;;;;;;5014536;28;20053;-83
2022/03/22 08:31:06;;;;;;;38.45;31.08;;;16.40;99.90;;;;;;5014801;28;20037;-84
2022/03/22 08:33:32;;;;;;;35.40;27.95;;;16.50;99.90;;;;;;5023386;28;20098;-82
2022/03/22 08:35:58;;;;;;;34.55;28.42;;;16.60;99.90;;;;;;5031342;28;20046;-83
2022/03/22 08:38:27;;;;;;;33.20;28.08;;;17.10;99.90;;;;;;4981881;28;20064;-83
2022/03/22 08:40:52;;;;;;;34.08;28.13;;;17.10;99.90;;;;;;5014917;28;20041;-81
2022/03/22 08:43:21;;;;;;;36.63;29.38;;;17.10;99.90;;;;;;5031170;28;20049;-83
2022/03/22 08:45:47;;;;;;;35.55;27.10;;;17.50;99.90;;;;;;5015340;28;20056;-84
2022/03/22 08:48:13;;;;;;;32.42;26.05;;;18.10;99.90;;;;;;5026397;28;20048;-82
2022/03/22 08:50:42;;;;;;;33.47;25.50;;;18.40;97.90;;;;;;5030749;28;20391;-82
2022/03/22 08:53:08;;;;;;;33.25;25.63;;;18.50;96.10;;;;;;5050267;28;20056;-82
2022/03/22 08:55:34;;;;;;;34.45;26.23;;;18.60;95.00;;;;;;5047149;28;20187;-82
2022/03/22 08:58:05;;;;;;;27.02;23.42;;;19.20;96.40;;;;;;5051498;28;20135;-81
2022/03/22 09:00:34;;;;;;;30.23;24.85;;;19.10;92.60;;;;;;5047049;28;20080;-82
2022/03/22 09:03:00;;;;;;;30.52;24.63;;;18.70;90.40;;;;;;5000216;28;20045;-82
2022/03/22 09:08:10;;;;;;;28.98;24.13;;;19.20;92.30;;;;;;5049977;28;20041;-83
2022/03/22 09:10:36;;;;;;;30.73;23.35;;;19.50;92.30;;;;;;5032702;28;20063;-83
2022/03/22 09:13:02;;;;;;;32.75;24.75;;;19.10;90.50;;;;;;5033539;28;20068;-83
2022/03/22 09:15:28;;;;;;;29.33;23.42;;;19.70;90.70;;;;;;5049389;28;20102;-83
2022/03/22 09:17:54;;;;;;;29.73;23.08;;;20.00;90.70;;;;;;5033417;28;20045;-83
2022/03/22 09:20:20;;;;;;;29.98;22.70;;;19.50;85.00;;;;;;5047961;28;20054;-83
2022/03/22 09:22:48;;;;;;;30.95;23.20;;;19.40;90.40;;;;;;5032852;28;20033;-81
2022/03/22 09:25:14;;;;;;;31.38;23.20;;;19.80;89.10;;;;;;5033070;28;20075;-82
2022/03/22 09:27:43;;;;;;;26.98;22.13;;;20.40;90.10;;;;;;5013244;28;20477;-83
2022/03/22 09:30:10;;;;;;;27.77;22.30;;;20.20;88.60;;;;;;5049376;28;20045;-83
2022/03/22 09:32:36;;;;;;;28.15;23.17;;;20.30;84.10;;;;;;5032817;28;20115;-82
2022/03/22 09:35:06;;;;;;;29.20;23.67;;;20.60;88.40;;;;;;5029309;28;20046;-84
2022/03/22 09:37:33;;;;;;;28.73;22.75;;;20.60;84.20;;;;;;5017146;28;20051;-82
2022/03/22 09:39:59;;;;;;;29.88;24.35;;;20.20;85.20;;;;;;5063848;28;20567;-84
2022/03/22 09:42:27;;;;;;;32.33;24.05;;;20.30;86.80;;;;;;5033720;28;20163;-86
2022/03/22 09:44:52;;;;;;;28.95;24.35;;;20.90;88.10;;;;;;5050108;28;20091;-84
2022/03/22 09:47:18;;;;;;;27.15;24.05;;;20.70;85.70;;;;;;5050081;28;20056;-86
2022/03/22 09:49:44;;;;;;;30.92;23.70;;;21.20;86.40;;;;;;5034040;28;20531;-84
2022/03/22 09:52:10;;;;;;;32.55;24.52;;;21.70;83.00;;;;;;5056624;28;20045;-84
2022/03/22 09:54:36;;;;;;;28.02;23.48;;;21.20;85.10;;;;;;5048745;28;20040;-84
2022/03/22 09:57:05;;;;;;;28.63;22.95;;;20.80;85.30;;;;;;5055771;28;20182;-85
2022/03/22 09:59:33;;;;;;;28.50;23.67;;;21.00;84.80;;;;;;5049411;28;20049;-85
2022/03/22 10:02:05;;;;;;;28.50;23.48;;;20.90;84.20;;;;;;5033562;28;20077;-84
2022/03/22 10:04:39;;;;;;;31.92;22.88;;;21.20;84.20;;;;;;5016589;28;20064;-84
2022/03/22 10:07:06;;;;;;;26.80;22.35;;;21.30;82.10;;;;;;5017189;28;20052;-87
2022/03/22 10:09:39;;;;;;;28.25;22.27;;;21.40;84.40;;;;;;5012056;28;20049;-85
2022/03/22 10:12:07;;;;;;;;;;;21.50;83.50;;;;;;5050062;28;20130;-84
2022/03/22 10:14:40;;;;;;;29.08;22.65;;;22.30;80.30;;;;;;5016698;28;19927;-85
2022/03/22 10:17:19;;;;;;;27.08;22.42;;;22.00;81.40;;;;;;5014517;28;20053;-84
2022/03/22 10:19:50;;;;;;;27.00;21.83;;;22.00;79.80;;;;;;5044107;28;20071;-85
2022/03/22 10:22:16;;;;;;;31.13;22.27;;;21.20;79.10;;;;;;5031022;28;20049;-85
2022/03/22 10:24:46;;;;;;;28.33;22.48;;;21.10;79.90;;;;;;5032445;28;20052;-84
2022/03/22 10:27:28;;;;;;;28.38;22.08;;;21.20;80.90;;;;;;5049673;28;20053;-85
2022/03/22 10:29:55;;;;;;;31.02;22.77;;;21.40;81.40;;;;;;5029093;28;20436;-83
2022/03/22 10:32:32;;;;;;;29.38;23.25;;;21.50;82.20;;;;;;5027062;28;20053;-83
2022/03/22 10:35:13;;;;;;;30.05;21.75;;;21.40;82.30;;;;;;5049770;28;20064;-86
2022/03/22 10:37:43;;;;;;;30.58;23.33;;;21.00;81.90;;;;;;5017985;28;20401;-85
2022/03/22 10:40:23;;;;;;;33.63;24.42;;;20.60;83.10;;;;;;5033568;28;20083;-84
2022/03/22 10:42:50;;;;;;;33.63;24.90;;;20.60;87.10;;;;;;5052558;28;20045;-86
2022/03/22 10:45:16;;;;;;;31.23;25.98;;;20.70;88.60;;;;;;5037070;28;20401;-84
2022/03/22 10:47:43;;;;;;;30.15;25.23;;;20.60;89.80;;;;;;5050337;28;20052;-83
2022/03/22 10:50:09;;;;;;;33.80;25.35;;;20.30;90.20;;;;;;5023333;28;20049;-85
2022/03/22 10:52:45;;;;;;;34.38;25.40;;;20.20;91.40;;;;;;5035975;28;20052;-84
2022/03/22 10:55:11;;;;;;;33.55;26.02;;;19.90;91.70;;;;;;5035707;28;20916;-84
2022/03/22 10:57:37;;;;;;;34.55;26.67;;;20.00;92.00;;;;;;5034947;28;20128;-84
2022/03/22 11:00:05;;;;;;;33.92;26.00;;;20.20;91.90;;;;;;5017738;28;20061;-84
2022/03/22 11:02:35;;;;;;;36.30;25.95;;;20.10;91.90;;;;;;5036046;28;20131;-84
2022/03/22 11:05:03;;;;;;;33.97;26.50;;;20.90;92.80;;;;;;5019620;28;20393;-85
2022/03/22 11:07:33;;;;;;;34.70;24.50;;;20.10;92.00;;;;;;5019641;28;20485;-85
2022/03/22 11:09:59;;;;;;;32.63;25.25;;;19.70;92.80;;;;;;5035754;28;20052;-86
2022/03/22 11:12:26;;;;;;;34.70;24.63;;;19.60;93.10;;;;;;5036525;28;20037;-85
2022/03/22 11:14:52;;;;;;;31.30;25.30;;;19.80;93.60;;;;;;5020353;28;20095;-85
2022/03/22 11:17:17;;;;;;;30.38;24.35;;;19.30;93.80;;;;;;5030237;28;20049;-84
2022/03/22 11:19:43;;;;;;;31.83;25.35;;;19.10;94.30;;;;;;5039195;28;20080;-85
2022/03/22 11:22:09;;;;;;;31.75;25.55;;;18.80;95.40;;;;;;5018942;28;20067;-85
2022/03/22 11:24:36;;;;;;;36.78;25.08;;;18.90;95.60;;;;;;5054549;28;20139;-85
2022/03/22 11:27:03;;;;;;;31.88;24.67;;;19.00;96.00;;;;;;5036664;28;20167;-85
2022/03/22 11:29:29;;;;;;;31.45;24.38;;;18.90;96.30;;;;;;5020531;28;20052;-85
2022/03/22 11:34:40;;;;;;;31.50;22.35;;;19.10;94.30;;;;;;5024430;28;20524;-85
2022/03/22 11:37:06;;;;;;;32.28;22.27;;;19.00;92.80;;;;;;5036655;28;20053;-85
2022/03/22 11:42:17;;;;;;;31.67;22.10;;;19.00;92.30;;;;;;5052501;28;20044;-84
2022/03/22 11:44:42;;;;;;;32.88;21.63;;;18.90;92.50;;;;;;5019069;28;20139;-84
2022/03/22 11:47:11;;;;;;;31.58;22.40;;;19.00;91.50;;;;;;5018650;28;20562;-85
2022/03/22 11:49:59;;;;;;;33.70;22.20;;;19.10;92.60;;;;;;5035213;28;20463;-85
2022/03/22 11:52:26;;;;;;;35.42;21.88;;;19.10;92.70;;;;;;5018776;28;20044;-85
2022/03/22 11:54:55;;;;;;;35.45;22.42;;;19.00;91.80;;;;;;5054150;28;20049;-85
2022/03/22 11:57:21;;;;;;;32.70;22.73;;;19.30;91.30;;;;;;5044115;28;20045;-85
2022/03/22 11:59:47;;;;;;;33.85;22.38;;;19.30;90.90;;;;;;5020244;28;20045;-85
2022/03/22 12:02:17;;;;;;;34.95;21.27;;;19.20;91.00;;;;;;5036773;28;20099;-85
2022/03/22 12:05:01;;;;;;;36.10;22.70;;;19.30;91.30;;;;;;5010231;28;20114;-85
2022/03/22 12:07:37;;;;;;;;;;;19.20;91.40;;;;;;5020755;28;20532;-86
2022/03/22 12:10:14;;;;;;;35.88;22.20;;;19.10;90.40;;;;;;5051613;28;20380;-85
2022/03/22 12:12:43;;;;;;;35.58;21.73;;;19.20;90.80;;;;;;5019570;28;20160;-83
2022/03/22 12:15:10;;;;;;;32.05;22.60;;;19.40;91.90;;;;;;5035955;28;20041;-88
2022/03/22 12:17:36;;;;;;;34.33;23.27;;;19.20;91.10;;;;;;5035338;28;20048;-86
2022/03/22 12:20:05;;;;;;;33.97;23.25;;;19.50;92.00;;;;;;5035121;28;20439;-86
2022/03/22 12:22:31;;;;;;;33.58;23.17;;;19.50;91.40;;;;;;5051933;28;20060;-86
2022/03/22 12:24:58;;;;;;;31.08;22.05;;;19.40;91.20;;;;;;5033792;28;20512;-87
2022/03/22 12:27:24;;;;;;;37.35;24.17;;;19.20;91.40;;;;;;5035050;28;20041;-86
2022/03/22 12:29:49;;;;;;;33.38;23.85;;;19.50;91.80;;;;;;5036614;28;20067;-84
2022/03/22 12:32:20;;;;;;;32.80;25.17;;;19.50;92.80;;;;;;5067873;28;20049;-85
2022/03/22 12:34:46;;;;;;;37.67;23.70;;;19.50;92.80;;;;;;5018419;28;20110;-84
2022/03/22 12:37:12;;;;;;;36.08;24.23;;;19.50;93.10;;;;;;5034006;28;20144;-85
2022/03/22 12:39:41;;;;;;;33.63;23.15;;;19.60;93.00;;;;;;5052106;28;20057;-86
2022/03/22 12:42:07;;;;;;;32.55;22.92;;;19.60;91.30;;;;;;5018807;28;20373;-86
2022/03/22 12:44:33;;;;;;;35.38;25.00;;;19.60;91.90;;;;;;5052290;28;20056;-86
2022/03/22 12:46:59;;;;;;;32.45;22.17;;;19.60;92.70;;;;;;5018248;28;20057;-86
2022/03/22 12:49:27;;;;;;;34.92;22.38;;;19.60;93.00;;;;;;5035188;28;20485;-87
2022/03/22 12:51:52;;;;;;;36.88;23.92;;;19.70;93.20;;;;;;5051366;28;20079;-87
2022/03/22 12:54:18;;;;;;;33.85;24.00;;;19.70;92.40;;;;;;5051705;28;20049;-87
2022/03/22 12:56:47;;;;;;;34.78;24.00;;;19.60;92.50;;;;;;5034930;28;20110;-86
2022/03/22 12:59:20;;;;;;;33.20;22.95;;;19.70;92.90;;;;;;5035682;28;20064;-87
2022/03/22 13:01:45;;;;;;;32.83;22.10;;;19.80;91.50;;;;;;5051700;28;20374;-87
2022/03/22 13:04:11;;;;;;;34.75;23.60;;;19.70;91.00;;;;;;5050456;28;20056;-88